Time;durP1;ratioP1;P1;durP2;ratioP2;P2;SDS_P1;SDS_P2;PMS_P1;PMS_P2;Temp;Humidity;BMP_temperature;BMP_pressure;BME280_temperature;BME280_humidity;BME280_pressure;Samples;Min_cycle;Max_cycle;Signal;HPM_P1;HPM_P2
2022/03/11 00:00:46;;;;;;;12.70;5.65;;;-0.20;61.30;;;;;;4948958;28;20030;-70
2022/03/11 00:03:13;;;;;;;11.83;5.97;;;-0.20;61.90;;;;;;4942177;28;20063;-70
2022/03/11 00:05:39;;;;;;;10.20;5.47;;;-0.30;62.40;;;;;;4938296;28;20668;-70
2022/03/11 00:08:05;;;;;;;10.88;5.53;;;-0.40;62.80;;;;;;4955511;28;20412;-70
2022/03/11 00:10:32;;;;;;;12.82;6.30;;;-0.30;62.70;;;;;;4937919;28;20038;-70
2022/03/11 00:12:58;;;;;;;12.90;6.63;;;-0.40;63.30;;;;;;4955173;28;20031;-69
2022/03/11 00:15:24;;;;;;;12.73;6.10;;;-0.40;64.10;;;;;;4942850;28;20275;-70
2022/03/11 00:17:51;;;;;;;14.38;6.28;;;-0.40;64.10;;;;;;4945752;28;20057;-69
2022/03/11 00:20:20;;;;;;;;;;;-0.40;64.70;;;;;;4946051;28;20042;-69
2022/03/11 00:22:47;;;;;;;13.95;6.22;;;-0.40;64.90;;;;;;4945140;28;19906;-70
2022/03/11 00:25:14;;;;;;;10.60;6.50;;;-0.50;65.00;;;;;;4946912;28;20469;-69
2022/03/11 00:27:40;;;;;;;11.98;6.15;;;-0.50;65.10;;;;;;4956658;28;20031;-70
2022/03/11 00:30:06;;;;;;;10.25;5.22;;;-0.50;65.20;;;;;;4954383;28;20105;-69
2022/03/11 00:32:32;;;;;;;13.95;6.38;;;-0.50;65.20;;;;;;4960444;28;20540;-70
2022/03/11 00:34:58;;;;;;;11.30;5.53;;;-0.50;65.10;;;;;;4954080;28;20029;-70
2022/03/11 00:37:25;;;;;;;12.65;5.97;;;-0.40;65.00;;;;;;4952632;28;20055;-70
2022/03/11 00:39:52;;;;;;;;;;;-0.50;64.60;;;;;;4942636;28;20046;-69
2022/03/11 00:42:18;;;;;;;11.05;5.63;;;-0.50;63.80;;;;;;4947265;28;19910;-69
2022/03/11 00:44:44;;;;;;;9.07;5.60;;;-0.50;64.40;;;;;;4942244;28;20022;-70
2022/03/11 00:47:10;;;;;;;11.98;5.13;;;-0.50;63.70;;;;;;4945236;28;20239;-70
2022/03/11 00:49:39;;;;;;;12.73;5.30;;;-0.50;63.60;;;;;;4943568;28;20030;-69
2022/03/11 00:52:05;;;;;;;10.05;5.20;;;-0.50;64.10;;;;;;4940470;28;20405;-69
2022/03/11 00:54:31;;;;;;;9.60;5.47;;;-0.50;63.20;;;;;;4964458;28;20534;-70
2022/03/11 00:56:57;;;;;;;10.23;6.28;;;-0.60;63.60;;;;;;4955177;28;20269;-70
2022/03/11 00:59:23;;;;;;;10.07;5.33;;;-0.60;63.60;;;;;;4975300;28;20031;-69
2022/03/11 01:01:49;;;;;;;10.13;5.13;;;-0.60;63.40;;;;;;4940559;28;20054;-70
2022/03/11 01:04:15;;;;;;;9.17;4.83;;;-0.60;63.20;;;;;;4946388;28;20027;-69
2022/03/11 01:06:41;;;;;;;9.25;5.20;;;-0.60;63.40;;;;;;4949447;28;20038;-69
2022/03/11 01:09:07;;;;;;;10.63;6.00;;;-0.60;63.30;;;;;;4954385;28;20023;-70
2022/03/11 01:11:33;;;;;;;11.68;5.63;;;-0.60;63.60;;;;;;4937673;28;20023;-70
2022/03/11 01:14:00;;;;;;;8.40;4.70;;;-0.60;63.30;;;;;;4947784;28;20027;-69
2022/03/11 01:16:25;;;;;;;11.15;5.13;;;-0.60;63.60;;;;;;4955342;28;20374;-70
2022/03/11 01:18:51;;;;;;;11.37;6.17;;;-0.70;63.70;;;;;;4958913;28;20031;-69
2022/03/11 01:21:17;;;;;;;9.67;5.47;;;-0.70;64.00;;;;;;4942095;28;20023;-69
2022/03/11 01:23:44;;;;;;;11.23;5.17;;;-0.70;64.20;;;;;;4951673;28;20058;-70
2022/03/11 01:26:12;;;;;;;9.43;4.60;;;-0.70;64.20;;;;;;4953724;28;20026;-70
2022/03/11 01:28:41;;;;;;;10.13;5.63;;;-0.70;64.40;;;;;;4947710;28;20584;-69
2022/03/11 01:31:12;;;;;;;8.88;5.32;;;-0.70;64.60;;;;;;4940941;28;20074;-70
2022/03/11 01:33:42;;;;;;;10.00;5.25;;;-0.70;64.50;;;;;;4943141;28;20029;-69
2022/03/11 01:36:09;;;;;;;11.60;6.03;;;-0.70;64.10;;;;;;4951678;28;20543;-70
2022/03/11 01:38:35;;;;;;;10.98;5.45;;;-0.80;64.10;;;;;;4951446;28;20053;-70
2022/03/11 01:41:01;;;;;;;9.80;5.27;;;-0.70;64.00;;;;;;4947021;28;20377;-70
2022/03/11 01:43:28;;;;;;;11.50;5.47;;;-0.70;64.30;;;;;;4946132;28;20038;-70
2022/03/11 01:45:55;;;;;;;14.55;5.65;;;-0.80;64.10;;;;;;4950887;28;20115;-70
2022/03/11 01:48:21;;;;;;;;;;;-0.90;63.80;;;;;;4941702;28;20042;-70
2022/03/11 01:50:47;;;;;;;9.23;5.07;;;-0.90;63.60;;;;;;4949372;28;19910;-69
2022/03/11 01:53:13;;;;;;;7.95;3.97;;;-1.00;64.10;;;;;;4953373;28;20019;-70
2022/03/11 01:55:39;;;;;;;8.53;4.83;;;-1.00;63.90;;;;;;4946548;28;20071;-70
2022/03/11 01:58:07;;;;;;;9.80;4.93;;;-1.10;64.00;;;;;;4962808;28;20616;-70
2022/03/11 02:00:40;;;;;;;9.05;4.78;;;-1.10;63.90;;;;;;4939046;28;20345;-70
2022/03/11 02:03:07;;;;;;;10.52;5.15;;;-1.10;64.00;;;;;;4971066;28;20030;-70
2022/03/11 02:05:33;;;;;;;7.70;4.85;;;-1.10;63.90;;;;;;4945910;28;20106;-69
2022/03/11 02:07:59;;;;;;;8.00;5.10;;;-1.10;63.20;;;;;;4943925;28;20118;-69
2022/03/11 02:10:26;;;;;;;12.97;4.87;;;-1.10;63.40;;;;;;4953580;28;20027;-69
2022/03/11 02:12:53;;;;;;;;;;;-1.20;63.50;;;;;;4945232;28;20050;-70
2022/03/11 02:15:20;;;;;;;9.73;4.40;;;-1.20;63.40;;;;;;4958378;28;19984;-69
2022/03/11 02:17:46;;;;;;;9.88;4.35;;;-1.20;63.30;;;;;;4949346;28;20019;-70
2022/03/11 02:20:12;;;;;;;6.93;3.92;;;-1.30;62.60;;;;;;4952526;28;20196;-70
2022/03/11 02:22:40;;;;;;;7.93;4.37;;;-1.20;62.50;;;;;;4946264;28;20702;-70
2022/03/11 02:25:07;;;;;;;8.93;3.80;;;-1.30;62.60;;;;;;4951907;28;20028;-70
2022/03/11 02:27:37;;;;;;;6.10;3.53;;;-1.30;62.60;;;;;;4947418;28;20019;-70
2022/03/11 02:30:16;;;;;;;6.75;4.13;;;-1.40;62.70;;;;;;4953773;28;20033;-71
2022/03/11 02:32:43;;;;;;;8.10;3.95;;;-1.40;62.80;;;;;;4945014;28;20059;-69
2022/03/11 02:35:11;;;;;;;8.27;4.53;;;-1.40;62.90;;;;;;4951079;28;20019;-70
2022/03/11 02:37:38;;;;;;;6.68;4.10;;;-1.50;63.00;;;;;;4939659;28;20039;-70
2022/03/11 02:40:05;;;;;;;5.78;3.63;;;-1.50;63.30;;;;;;4947148;28;20110;-69
2022/03/11 02:42:31;;;;;;;7.85;3.92;;;-1.50;63.20;;;;;;4950548;28;20110;-70
2022/03/11 02:45:03;;;;;;;8.00;3.83;;;-1.50;63.10;;;;;;4947688;28;20107;-69
2022/03/11 02:47:29;;;;;;;7.05;3.60;;;-1.50;63.30;;;;;;4952395;28;20042;-70
2022/03/11 02:49:55;;;;;;;7.23;4.40;;;-1.60;63.50;;;;;;4945623;28;20113;-70
2022/03/11 02:52:25;;;;;;;7.27;4.03;;;-1.60;63.80;;;;;;4965002;28;20090;-70
2022/03/11 02:54:52;;;;;;;8.30;4.25;;;-1.60;63.90;;;;;;4950076;28;20026;-69
2022/03/11 02:57:18;;;;;;;8.23;4.03;;;-1.60;64.10;;;;;;4945735;28;20073;-69
2022/03/11 02:59:45;;;;;;;5.77;3.70;;;-1.60;64.10;;;;;;4941929;28;20412;-69
2022/03/11 03:02:11;;;;;;;8.07;4.78;;;-1.60;64.50;;;;;;4942053;28;20477;-70
2022/03/11 03:04:37;;;;;;;6.03;4.03;;;-1.70;64.60;;;;;;4941806;28;20031;-70
2022/03/11 03:07:03;;;;;;;8.70;4.30;;;-1.70;64.40;;;;;;4943565;28;20074;-69
2022/03/11 03:09:28;;;;;;;9.50;4.17;;;-1.70;64.70;;;;;;4950493;28;20034;-69
2022/03/11 03:11:54;;;;;;;7.50;3.83;;;-1.70;64.90;;;;;;4966597;28;20270;-69
2022/03/11 03:14:20;;;;;;;7.20;4.27;;;-1.80;64.80;;;;;;4944074;28;20117;-69
2022/03/11 03:16:46;;;;;;;8.37;4.17;;;-1.80;65.00;;;;;;4944263;28;20031;-69
2022/03/11 03:19:12;;;;;;;7.70;3.87;;;-1.90;65.20;;;;;;4939741;28;20059;-69
2022/03/11 03:21:39;;;;;;;7.93;4.38;;;-1.90;65.30;;;;;;4944725;28;20026;-69
2022/03/11 03:24:06;;;;;;;7.50;4.60;;;-1.90;65.50;;;;;;4960960;28;20023;-69
2022/03/11 03:26:31;;;;;;;;;;;-2.00;65.80;;;;;;4951475;28;20046;-70
2022/03/11 03:28:57;;;;;;;7.43;3.95;;;-2.00;65.70;;;;;;4953080;28;19952;-70
2022/03/11 03:31:23;;;;;;;6.80;3.37;;;-2.00;65.80;;;;;;4953686;28;20507;-70
2022/03/11 03:33:50;;;;;;;7.15;3.75;;;-2.00;65.90;;;;;;4951146;28;20110;-70
2022/03/11 03:36:15;;;;;;;7.57;4.20;;;-2.00;66.00;;;;;;4946743;28;20027;-69
2022/03/11 03:38:42;;;;;;;6.20;3.67;;;-2.00;66.10;;;;;;4949797;28;20035;-70
2022/03/11 03:41:08;;;;;;;6.97;4.20;;;-2.00;66.00;;;;;;4946702;28;20020;-69
2022/03/11 03:43:33;;;;;;;8.93;4.50;;;-2.00;66.00;;;;;;4943830;28;20448;-70
2022/03/11 03:45:59;;;;;;;8.10;3.33;;;-2.10;65.90;;;;;;4949943;28;20090;-70
2022/03/11 03:48:25;;;;;;;10.33;4.07;;;-2.10;66.10;;;;;;4951741;28;20042;-70
2022/03/11 03:50:51;;;;;;;7.93;4.07;;;-2.00;66.20;;;;;;4973941;28;20719;-70
2022/03/11 03:53:16;;;;;;;10.23;4.00;;;-2.00;65.40;;;;;;4956811;28;20033;-69
2022/03/11 03:55:42;;;;;;;9.30;4.53;;;-2.10;65.40;;;;;;4955120;28;20457;-69
2022/03/11 03:58:08;;;;;;;6.73;3.77;;;-2.20;65.40;;;;;;4954564;28;20588;-70
2022/03/11 04:00:34;;;;;;;10.43;3.90;;;-2.20;65.50;;;;;;4949554;28;20026;-71
2022/03/11 04:03:00;;;;;;;7.47;3.85;;;-2.20;65.70;;;;;;4950034;28;20683;-69
2022/03/11 04:05:26;;;;;;;7.87;4.40;;;-2.20;65.20;;;;;;4947757;28;20035;-69
2022/03/11 04:07:51;;;;;;;8.30;4.60;;;-2.20;65.40;;;;;;4950759;28;20216;-70
2022/03/11 04:10:18;;;;;;;8.30;4.27;;;-2.20;65.20;;;;;;4957718;28;20031;-69
2022/03/11 04:12:44;;;;;;;11.40;3.85;;;-2.20;65.50;;;;;;4942841;28;20038;-69
2022/03/11 04:15:10;;;;;;;7.60;3.90;;;-2.30;64.50;;;;;;4948680;28;20027;-69
2022/03/11 04:17:36;;;;;;;7.10;3.73;;;-2.30;64.90;;;;;;4947777;28;20033;-71
2022/03/11 04:20:04;;;;;;;5.53;3.53;;;-2.40;64.70;;;;;;4956031;28;20050;-70
2022/03/11 04:22:29;;;;;;;8.27;4.13;;;-2.40;64.80;;;;;;4945694;28;20489;-69
2022/03/11 04:24:56;;;;;;;8.70;4.10;;;-2.40;64.60;;;;;;4948641;28;20037;-69
2022/03/11 04:27:22;;;;;;;7.75;4.00;;;-2.40;64.40;;;;;;4944306;28;20552;-69
2022/03/11 04:29:47;;;;;;;6.10;3.40;;;-2.40;64.30;;;;;;4941193;28;20027;-69
2022/03/11 04:32:13;;;;;;;9.07;4.30;;;-2.50;64.30;;;;;;4951851;28;20019;-69
2022/03/11 04:34:39;;;;;;;6.40;4.00;;;-2.50;64.70;;;;;;4941744;28;20106;-69
2022/03/11 04:37:04;;;;;;;8.43;4.30;;;-2.50;64.10;;;;;;4945091;28;20062;-69
2022/03/11 04:39:30;;;;;;;6.47;3.80;;;-2.50;64.30;;;;;;4952695;28;20039;-69
2022/03/11 04:41:57;;;;;;;6.87;3.97;;;-2.50;64.50;;;;;;4945643;28;20027;-69
2022/03/11 04:44:23;;;;;;;7.22;4.00;;;-2.50;64.40;;;;;;4954454;28;20787;-69
2022/03/11 04:46:49;;;;;;;6.15;3.67;;;-2.50;63.90;;;;;;4947215;28;20089;-69
2022/03/11 04:49:16;;;;;;;6.43;3.17;;;-2.50;63.90;;;;;;4954110;28;20114;-69
2022/03/11 04:51:42;;;;;;;6.47;4.15;;;-2.50;64.10;;;;;;4956368;28;20114;-69
2022/03/11 04:54:09;;;;;;;6.25;3.78;;;-2.50;63.90;;;;;;4947787;28;20031;-69
2022/03/11 04:56:36;;;;;;;7.18;3.67;;;-2.60;64.00;;;;;;4954887;28;20511;-70
2022/03/11 04:59:02;;;;;;;8.05;4.00;;;-2.50;64.10;;;;;;4943869;28;20315;-69
2022/03/11 05:01:28;;;;;;;7.50;3.93;;;-2.60;64.00;;;;;;4954495;28;20488;-69
2022/03/11 05:03:53;;;;;;;12.40;4.17;;;-2.60;64.00;;;;;;4952385;28;20027;-69
2022/03/11 05:06:19;;;;;;;6.57;3.67;;;-2.60;64.30;;;;;;4941713;28;20094;-69
2022/03/11 05:08:45;;;;;;;6.27;3.77;;;-2.60;64.10;;;;;;4948828;28;20023;-70
2022/03/11 05:11:10;;;;;;;11.37;3.80;;;-2.60;64.30;;;;;;4942121;28;20037;-69
2022/03/11 05:13:36;;;;;;;7.53;3.93;;;-2.60;64.30;;;;;;4951013;28;20042;-69
2022/03/11 05:16:02;;;;;;;7.40;4.10;;;-2.70;64.80;;;;;;4955074;28;20027;-69
2022/03/11 05:18:28;;;;;;;9.60;3.83;;;-2.70;63.90;;;;;;4944758;28;20023;-69
2022/03/11 05:20:53;;;;;;;6.97;3.70;;;-2.70;64.30;;;;;;4950917;28;20026;-69
2022/03/11 05:23:19;;;;;;;7.80;4.20;;;-2.70;64.10;;;;;;4950357;28;20023;-69
2022/03/11 05:25:45;;;;;;;6.72;3.97;;;-2.60;64.00;;;;;;4948018;28;20022;-70
2022/03/11 05:28:11;;;;;;;6.67;3.80;;;-2.40;63.70;;;;;;4947688;28;20022;-69
2022/03/11 05:30:38;;;;;;;8.23;3.80;;;-2.20;63.40;;;;;;4940120;28;20035;-70
2022/03/11 05:33:05;;;;;;;9.90;4.05;;;-2.00;62.50;;;;;;4946955;28;20626;-70
2022/03/11 05:35:31;;;;;;;7.63;3.55;;;-1.70;61.80;;;;;;4946658;28;20046;-70
2022/03/11 05:37:58;;;;;;;6.68;3.58;;;-1.50;61.30;;;;;;4964788;28;20019;-70
2022/03/11 05:40:24;;;;;;;;;;;-1.30;60.50;;;;;;4953322;28;20481;-70
2022/03/11 05:42:52;;;;;;;8.98;4.07;;;-0.90;59.50;;;;;;4948059;28;19930;-69
2022/03/11 05:45:18;;;;;;;7.00;4.07;;;-0.50;58.90;;;;;;4944104;28;20481;-70
2022/03/11 05:47:44;;;;;;;7.27;3.93;;;-0.40;58.40;;;;;;4948434;28;20557;-70
2022/03/11 05:50:10;;;;;;;8.45;4.40;;;0.10;56.90;;;;;;4966037;28;20023;-69
2022/03/11 05:52:38;;;;;;;8.27;4.20;;;0.10;56.60;;;;;;4958065;28;20504;-69
2022/03/11 05:55:05;;;;;;;7.38;4.03;;;0.40;55.50;;;;;;4945996;28;20091;-69
2022/03/11 05:57:30;;;;;;;8.23;4.63;;;0.40;55.60;;;;;;4946908;28;20031;-69
2022/03/11 05:59:56;;;;;;;6.60;4.43;;;0.40;55.30;;;;;;4950304;28;20534;-70
2022/03/11 06:02:22;;;;;;;6.70;3.83;;;0.50;55.20;;;;;;4947096;28;20037;-69
2022/03/11 06:04:48;;;;;;;7.17;3.83;;;0.90;55.00;;;;;;4941440;28;20197;-70
2022/03/11 06:07:13;;;;;;;12.40;4.03;;;1.50;53.20;;;;;;4940741;28;20425;-70
2022/03/11 06:09:39;;;;;;;9.50;4.40;;;1.60;52.40;;;;;;4955449;28;20274;-70
2022/03/11 06:12:05;;;;;;;5.67;3.43;;;2.10;51.60;;;;;;4947015;28;20034;-70
2022/03/11 06:14:31;;;;;;;10.03;4.40;;;2.30;51.90;;;;;;4946600;28;20022;-70
2022/03/11 06:16:57;;;;;;;7.47;3.77;;;2.90;50.50;;;;;;4952097;28;21151;-70
2022/03/11 06:19:22;;;;;;;7.63;4.47;;;2.40;49.90;;;;;;4947982;28;20042;-69
2022/03/11 06:21:48;;;;;;;5.97;3.87;;;2.00;49.90;;;;;;4945481;28;20539;-70
2022/03/11 06:24:14;;;;;;;9.13;4.23;;;2.10;51.10;;;;;;4952451;28;20456;-70
2022/03/11 06:26:40;;;;;;;8.17;4.17;;;1.80;50.60;;;;;;4945362;28;20050;-70
2022/03/11 06:29:07;;;;;;;9.10;3.65;;;2.40;49.70;;;;;;4946672;28;20441;-69
2022/03/11 06:31:33;;;;;;;10.10;4.50;;;2.70;49.30;;;;;;4946393;28;20039;-69
2022/03/11 06:33:59;;;;;;;8.73;5.13;;;3.50;48.10;;;;;;4950143;28;20822;-69
2022/03/11 06:36:25;;;;;;;8.25;4.60;;;3.30;47.30;;;;;;4939168;28;20023;-69
2022/03/11 06:38:51;;;;;;;7.05;3.75;;;3.50;47.70;;;;;;4945461;28;20122;-69
2022/03/11 06:41:17;;;;;;;7.27;4.20;;;3.30;46.70;;;;;;4950622;28;20245;-69
2022/03/11 06:43:43;;;;;;;7.10;4.00;;;3.40;47.80;;;;;;4950106;28;20015;-69
2022/03/11 06:46:08;;;;;;;7.93;4.10;;;3.50;47.00;;;;;;4945788;28;20031;-69
2022/03/11 06:48:35;;;;;;;8.53;4.30;;;3.00;47.40;;;;;;4942199;28;20121;-69
2022/03/11 06:51:04;;;;;;;9.82;4.13;;;3.90;47.10;;;;;;4950129;28;20106;-69
2022/03/11 06:53:34;;;;;;;12.85;4.97;;;4.30;46.20;;;;;;4954673;28;20026;-69
2022/03/11 06:56:00;;;;;;;6.53;4.07;;;4.80;44.70;;;;;;4944069;28;20170;-68
2022/03/11 06:58:30;;;;;;;8.00;4.85;;;3.50;46.80;;;;;;4959211;28;20055;-69
2022/03/11 07:00:56;;;;;;;8.38;3.85;;;3.30;47.10;;;;;;4949035;28;20062;-69
2022/03/11 07:03:22;;;;;;;11.33;4.43;;;3.70;46.60;;;;;;4951702;28;20069;-69
2022/03/11 07:05:48;;;;;;;5.68;4.07;;;4.20;45.30;;;;;;4940231;28;20050;-69
2022/03/11 07:08:14;;;;;;;9.13;4.40;;;3.70;45.30;;;;;;4945216;28;20031;-69
2022/03/11 07:10:40;;;;;;;7.03;3.72;;;3.30;45.90;;;;;;4950827;28;20086;-70
2022/03/11 07:13:05;;;;;;;7.47;4.45;;;4.50;45.50;;;;;;4946521;28;20051;-70
2022/03/11 07:15:31;;;;;;;7.47;4.33;;;4.70;43.40;;;;;;4942463;28;20042;-69
2022/03/11 07:17:58;;;;;;;7.47;4.30;;;4.90;43.40;;;;;;4938104;28;20039;-69
2022/03/11 07:20:23;;;;;;;6.80;4.15;;;5.00;44.00;;;;;;4939293;28;20057;-69
2022/03/11 07:22:49;;;;;;;8.73;4.07;;;4.60;43.70;;;;;;4947096;28;20066;-70
2022/03/11 07:25:15;;;;;;;8.17;4.40;;;5.70;43.10;;;;;;4949837;28;20026;-69
2022/03/11 07:27:41;;;;;;;6.20;3.83;;;5.50;42.70;;;;;;4942684;28;20166;-70
2022/03/11 07:30:11;;;;;;;7.57;4.17;;;5.30;41.90;;;;;;4948674;28;20027;-69
2022/03/11 07:32:40;;;;;;;7.30;3.47;;;4.40;42.10;;;;;;4948100;28;20486;-69
2022/03/11 07:35:08;;;;;;;8.85;3.90;;;4.90;43.20;;;;;;4944073;28;20024;-69
2022/03/11 07:37:35;;;;;;;8.05;4.10;;;5.60;41.70;;;;;;4947681;28;20775;-69
2022/03/11 07:40:03;;;;;;;6.97;3.95;;;5.00;42.00;;;;;;4940057;28;20373;-69
2022/03/11 07:42:28;;;;;;;6.57;3.78;;;4.10;42.90;;;;;;4945110;28;20085;-69
2022/03/11 07:44:54;;;;;;;8.43;4.60;;;4.60;43.10;;;;;;4935926;28;20031;-69
2022/03/11 07:47:20;;;;;;;5.53;4.10;;;4.20;43.40;;;;;;4948541;28;20035;-69
2022/03/11 07:49:45;;;;;;;8.27;4.33;;;3.90;43.70;;;;;;4937844;28;20632;-69
2022/03/11 07:52:15;;;;;;;7.30;3.70;;;4.10;43.70;;;;;;4948679;28;20067;-69
2022/03/11 07:54:42;;;;;;;7.93;4.13;;;4.20;44.00;;;;;;4943388;28;20135;-70
2022/03/11 07:57:09;;;;;;;8.68;5.50;;;5.80;41.80;;;;;;4945312;28;20023;-70
2022/03/11 07:59:36;;;;;;;;;;;6.50;40.50;;;;;;4946754;28;20808;-70
2022/03/11 08:02:02;;;;;;;7.20;3.90;;;5.60;41.00;;;;;;4965341;28;19906;-73
2022/03/11 08:04:32;;;;;;;7.45;4.28;;;6.90;40.30;;;;;;4946317;28;20077;-70
2022/03/11 08:07:06;;;;;;;7.20;4.05;;;6.30;39.40;;;;;;4945478;28;20031;-69
2022/03/11 08:09:33;;;;;;;8.90;4.60;;;6.00;40.10;;;;;;4951546;28;20385;-69
2022/03/11 08:11:59;;;;;;;9.15;3.90;;;4.60;41.40;;;;;;4937310;28;20055;-69
2022/03/11 08:14:24;;;;;;;6.13;3.90;;;5.20;41.30;;;;;;4938929;28;20027;-70
2022/03/11 08:16:50;;;;;;;6.40;3.90;;;5.70;40.80;;;;;;4936295;28;20094;-70
2022/03/11 08:19:16;;;;;;;8.83;3.83;;;5.70;40.90;;;;;;4944274;28;20046;-71
2022/03/11 08:21:41;;;;;;;8.87;4.10;;;6.90;39.30;;;;;;4949357;28;20027;-70
2022/03/11 08:24:07;;;;;;;5.60;3.63;;;6.90;38.70;;;;;;4941224;28;20812;-69
2022/03/11 08:26:33;;;;;;;6.33;4.00;;;6.70;38.80;;;;;;4945538;28;20026;-69
2022/03/11 08:28:59;;;;;;;5.80;4.00;;;6.70;39.30;;;;;;4949885;28;20037;-69
2022/03/11 08:31:24;;;;;;;8.57;4.10;;;6.90;38.70;;;;;;4948608;28;20027;-70
2022/03/11 08:33:50;;;;;;;6.87;4.20;;;5.80;39.30;;;;;;4944206;28;20645;-69
2022/03/11 08:36:15;;;;;;;7.03;4.07;;;5.10;40.80;;;;;;4949982;28;20030;-70
2022/03/11 08:38:41;;;;;;;8.73;3.87;;;4.90;42.20;;;;;;4950058;28;20061;-69
2022/03/11 08:41:08;;;;;;;8.30;4.30;;;5.30;41.40;;;;;;4950336;28;20023;-71
2022/03/11 08:43:38;;;;;;;8.20;4.07;;;6.10;40.40;;;;;;4950231;28;20027;-72
2022/03/11 08:46:04;;;;;;;7.35;4.15;;;6.70;39.10;;;;;;4946784;28;20015;-69
2022/03/11 08:48:30;;;;;;;9.10;4.90;;;6.80;39.20;;;;;;4954373;28;20026;-69
2022/03/11 08:50:56;;;;;;;6.63;3.87;;;7.10;38.30;;;;;;4947467;28;20489;-71
2022/03/11 08:53:21;;;;;;;6.72;3.60;;;7.00;38.10;;;;;;4956924;28;20020;-70
2022/03/11 08:55:47;;;;;;;8.10;4.70;;;7.30;38.50;;;;;;4948076;28;20038;-70
2022/03/11 08:58:13;;;;;;;7.80;4.60;;;7.70;37.90;;;;;;4950628;28;20026;-70
2022/03/11 09:00:41;;;;;;;8.40;4.30;;;8.90;37.20;;;;;;4944465;28;20379;-70
2022/03/11 09:03:07;;;;;;;7.65;3.92;;;9.40;36.30;;;;;;4951831;28;20270;-70
2022/03/11 09:05:33;;;;;;;8.98;4.22;;;10.00;35.00;;;;;;4950567;28;20135;-70
2022/03/11 09:07:59;;;;;;;6.88;4.25;;;9.70;34.90;;;;;;4947311;28;20030;-70
2022/03/11 09:10:25;;;;;;;9.02;4.18;;;9.30;35.10;;;;;;4940309;28;20141;-70
2022/03/11 09:12:51;;;;;;;7.87;5.07;;;9.10;35.40;;;;;;4936787;28;20034;-70
2022/03/11 09:15:17;;;;;;;6.67;4.57;;;9.80;35.60;;;;;;4944707;28;20061;-70
2022/03/11 09:17:45;;;;;;;7.00;4.47;;;10.00;35.50;;;;;;4951657;28;20034;-69
2022/03/11 09:20:12;;;;;;;6.65;4.03;;;7.90;36.30;;;;;;4942017;28;20031;-69
2022/03/11 09:22:39;;;;;;;11.45;5.05;;;6.60;37.70;;;;;;4956860;28;20054;-69
2022/03/11 09:25:07;;;;;;;7.03;4.28;;;6.00;39.20;;;;;;4949545;28;20031;-69
2022/03/11 09:27:33;;;;;;;6.63;4.18;;;5.80;39.90;;;;;;4944647;28;20022;-69
2022/03/11 09:29:59;;;;;;;6.22;3.60;;;5.70;40.30;;;;;;4945570;28;20653;-68
2022/03/11 09:32:25;;;;;;;6.73;3.97;;;6.60;39.00;;;;;;4951113;28;20039;-69
2022/03/11 09:34:51;;;;;;;7.00;4.85;;;7.40;38.40;;;;;;4962249;28;20031;-69
2022/03/11 09:37:19;;;;;;;7.93;4.50;;;7.60;37.70;;;;;;4946157;28;20905;-70
2022/03/11 09:39:45;;;;;;;7.03;3.78;;;8.10;37.50;;;;;;4942900;28;20039;-69
2022/03/11 09:42:11;;;;;;;9.33;4.23;;;8.30;36.80;;;;;;4942259;28;20015;-69
2022/03/11 09:44:38;;;;;;;;;;;7.60;36.30;;;;;;4952524;28;20126;-69
2022/03/11 09:47:04;;;;;;;6.50;4.30;;;7.50;37.50;;;;;;4946351;28;20323;-69
2022/03/11 09:49:34;;;;;;;7.17;4.27;;;7.40;36.80;;;;;;4960935;28;20026;-68
2022/03/11 09:52:00;;;;;;;8.73;4.50;;;6.30;38.40;;;;;;4944609;28;20485;-69
2022/03/11 09:54:26;;;;;;;;;;;7.30;38.00;;;;;;4947906;28;20437;-69
2022/03/11 09:56:53;;;;;;;6.45;4.00;;;7.10;37.10;;;;;;4950258;28;19915;-69
2022/03/11 09:59:19;;;;;;;6.75;3.90;;;7.60;36.90;;;;;;4946671;28;20114;-69
2022/03/11 10:01:44;;;;;;;7.13;4.60;;;6.50;37.30;;;;;;4950379;28;20050;-69
2022/03/11 10:04:11;;;;;;;7.43;4.17;;;6.00;38.10;;;;;;4939431;28;20646;-69
2022/03/11 10:06:45;;;;;;;6.07;4.22;;;6.20;38.60;;;;;;4942660;28;20102;-70
2022/03/11 10:09:19;;;;;;;8.50;4.15;;;6.50;38.40;;;;;;4945955;28;20101;-69
2022/03/11 10:11:46;;;;;;;7.03;3.70;;;6.50;38.20;;;;;;4948541;28;20034;-69
2022/03/11 10:14:12;;;;;;;8.32;4.13;;;6.70;37.70;;;;;;4949410;28;20019;-69
2022/03/11 10:16:38;;;;;;;10.37;4.50;;;7.10;37.00;;;;;;4963805;28;20700;-69
2022/03/11 10:19:06;;;;;;;8.45;4.72;;;7.50;37.20;;;;;;4943716;28;20614;-69
2022/03/11 10:21:34;;;;;;;8.02;4.50;;;7.20;36.50;;;;;;4943439;28;20031;-69
2022/03/11 10:24:02;;;;;;;8.13;4.47;;;6.70;37.00;;;;;;4943092;28;20661;-69
2022/03/11 10:26:31;;;;;;;7.47;3.90;;;5.70;38.20;;;;;;4938930;28;20079;-68
2022/03/11 10:28:58;;;;;;;6.68;4.07;;;5.90;37.30;;;;;;4952475;28;20130;-70
2022/03/11 10:31:32;;;;;;;8.93;4.00;;;6.10;38.20;;;;;;4941532;28;20023;-69
2022/03/11 10:34:17;;;;;;;5.75;3.70;;;6.70;37.10;;;;;;4948713;28;20502;-68
2022/03/11 10:36:47;;;;;;;6.47;3.70;;;6.40;36.50;;;;;;4950477;28;20062;-68
2022/03/11 10:39:14;;;;;;;6.80;3.97;;;6.40;37.10;;;;;;4945984;28;20046;-69
2022/03/11 10:41:40;;;;;;;7.50;4.05;;;6.60;37.20;;;;;;4939931;28;20430;-71
2022/03/11 10:44:09;;;;;;;6.10;3.87;;;7.10;36.40;;;;;;4938683;28;20114;-69
2022/03/11 10:46:35;;;;;;;6.80;3.83;;;8.40;35.40;;;;;;4942202;28;20023;-69
2022/03/11 10:49:01;;;;;;;6.57;4.15;;;8.70;35.20;;;;;;4943930;28;20472;-68
2022/03/11 10:51:35;;;;;;;6.43;4.07;;;8.80;34.10;;;;;;4939021;28;20094;-69
2022/03/11 10:54:04;;;;;;;7.30;4.15;;;8.30;34.80;;;;;;4943814;28;20685;-69
2022/03/11 10:56:35;;;;;;;8.48;4.18;;;8.60;34.30;;;;;;4937978;28;20039;-69
2022/03/11 10:59:27;;;;;;;7.05;4.25;;;8.20;34.80;;;;;;4948342;28;20377;-70
2022/03/11 11:01:55;;;;;;;6.75;3.92;;;8.70;34.80;;;;;;4940275;28;20035;-69
2022/03/11 11:04:21;;;;;;;5.95;3.50;;;8.10;34.10;;;;;;4937915;28;20031;-68
2022/03/11 11:06:48;;;;;;;7.73;3.90;;;6.70;36.00;;;;;;4967047;28;20030;-69
2022/03/11 11:09:17;;;;;;;9.27;4.45;;;6.10;37.60;;;;;;4949565;28;20042;-69
2022/03/11 11:11:43;;;;;;;8.50;4.10;;;5.90;38.30;;;;;;4939297;28;20023;-69
2022/03/11 11:14:10;;;;;;;6.65;3.90;;;5.50;38.50;;;;;;4937572;28;20520;-69
2022/03/11 11:16:41;;;;;;;;;;;4.90;38.40;;;;;;4946205;28;20027;-69
2022/03/11 11:19:18;;;;;;;7.93;3.53;;;4.70;39.10;;;;;;4971667;28;19910;-68
2022/03/11 11:21:46;;;;;;;8.90;3.53;;;4.80;39.50;;;;;;4948272;28;20480;-68
2022/03/11 11:24:17;;;;;;;10.25;4.28;;;4.40;39.60;;;;;;4941808;28;20027;-68
2022/03/11 11:26:47;;;;;;;7.85;3.85;;;4.30;40.60;;;;;;4953674;28;20050;-69
2022/03/11 11:29:18;;;;;;;7.05;3.60;;;4.80;40.50;;;;;;4945059;28;20026;-69
2022/03/11 11:31:45;;;;;;;6.22;3.60;;;4.70;39.80;;;;;;4964251;28;20681;-68
2022/03/11 11:34:26;;;;;;;5.72;3.20;;;4.60;39.30;;;;;;4944401;28;20030;-69
2022/03/11 11:36:51;;;;;;;6.13;3.40;;;4.80;39.00;;;;;;4942197;28;20032;-68
2022/03/11 11:39:17;;;;;;;7.73;3.37;;;4.70;38.50;;;;;;4943706;28;20604;-68
2022/03/11 11:41:57;;;;;;;6.47;3.80;;;4.00;39.70;;;;;;4933453;28;20541;-69
2022/03/11 11:44:34;;;;;;;6.53;3.58;;;4.40;40.30;;;;;;4939248;28;20018;-68
2022/03/11 11:47:06;;;;;;;9.13;3.25;;;4.20;40.00;;;;;;4947560;28;20054;-69
2022/03/11 11:49:46;;;;;;;6.38;3.30;;;4.60;40.40;;;;;;4941337;28;20043;-69
2022/03/11 11:52:35;;;;;;;5.57;3.13;;;4.80;40.10;;;;;;4932787;28;20030;-68
2022/03/11 11:55:19;;;;;;;6.88;3.28;;;4.80;39.40;;;;;;4942377;28;20489;-68
2022/03/11 11:57:46;;;;;;;7.15;3.63;;;4.20;40.00;;;;;;4952502;28;20046;-68
2022/03/11 12:00:26;;;;;;;;;;;3.90;40.50;;;;;;4955688;28;20384;-68
2022/03/11 12:02:53;;;;;;;6.28;3.13;;;4.30;41.00;;;;;;4945017;28;21350;-68
2022/03/11 12:05:51;;;;;;;4.93;3.47;;;4.60;40.50;;;;;;4960173;28;20027;-68
2022/03/11 12:08:47;;;;;;;5.60;3.78;;;4.80;39.70;;;;;;4937486;28;20398;-68
2022/03/11 12:11:39;;;;;;;6.82;3.60;;;4.60;39.40;;;;;;4938853;28;20039;-68
2022/03/11 12:14:05;;;;;;;7.28;3.40;;;4.60;40.10;;;;;;4945361;28;20022;-69
2022/03/11 12:17:07;;;;;;;7.83;4.00;;;4.70;40.10;;;;;;4951124;28;20537;-68
2022/03/11 12:19:44;;;;;;;5.32;3.25;;;4.50;40.10;;;;;;4953302;28;20041;-68
2022/03/11 12:22:33;;;;;;;8.10;3.38;;;4.20;40.60;;;;;;4945026;28;20027;-68
2022/03/11 12:25:02;;;;;;;9.15;4.28;;;4.10;40.20;;;;;;4961209;28;20035;-69
2022/03/11 12:28:00;;;;;;;7.43;3.92;;;3.90;40.40;;;;;;4941392;28;20023;-68
2022/03/11 12:30:34;;;;;;;5.75;3.45;;;3.80;40.80;;;;;;4943137;28;20046;-68
2022/03/11 12:33:03;;;;;;;7.00;3.15;;;4.00;40.50;;;;;;4951291;28;20027;-68
2022/03/11 12:35:28;;;;;;;6.07;3.30;;;4.40;40.10;;;;;;4952516;28;20504;-69
2022/03/11 12:37:54;;;;;;;5.77;3.80;;;4.40;39.30;;;;;;4946817;28;20031;-68
2022/03/11 12:40:24;;;;;;;7.50;4.10;;;4.30;39.60;;;;;;4949336;28;20027;-69
2022/03/11 12:42:58;;;;;;;5.65;2.80;;;4.40;40.10;;;;;;4952370;28;20031;-69
2022/03/11 12:45:30;;;;;;;5.30;3.10;;;4.60;39.50;;;;;;4947364;28;20057;-69
2022/03/11 12:47:56;;;;;;;5.80;3.53;;;4.70;39.40;;;;;;4945681;28;20038;-69
2022/03/11 12:50:22;;;;;;;6.53;3.30;;;4.50;39.60;;;;;;4949252;28;20031;-69
2022/03/11 12:52:48;;;;;;;4.43;3.10;;;4.70;39.70;;;;;;4948241;28;20676;-69
2022/03/11 12:55:27;;;;;;;8.27;3.80;;;4.80;39.30;;;;;;4950596;28;20063;-69